createdAt,value
2022-09-09T00:01:27.297Z,1.60
2022-09-09T00:04:15.553Z,1.52
2022-09-09T00:06:52.017Z,1.33
2022-09-09T00:09:21.622Z,1.67
2022-09-09T00:12:21.090Z,1.60
2022-09-09T00:15:13.965Z,1.25
2022-09-09T00:17:44.951Z,1.90
2022-09-09T00:20:14.609Z,1.90
2022-09-09T00:22:49.431Z,1.77
2022-09-09T00:25:30.804Z,1.30
2022-09-09T00:27:57.805Z,1.92
2022-09-09T00:30:27.513Z,1.30
2022-09-09T00:33:16.543Z,1.58
2022-09-09T00:35:49.769Z,1.42
2022-09-09T00:38:26.623Z,1.02
2022-09-09T00:41:00.433Z,1.50
2022-09-09T00:43:35.045Z,1.52
2022-09-09T00:46:11.036Z,2.20
2022-09-09T00:48:59.449Z,1.42
2022-09-09T00:51:58.593Z,1.58
2022-09-09T00:54:53.157Z,1.45
2022-09-09T00:57:35.508Z,1.67
2022-09-09T01:00:18.338Z,1.55
2022-09-09T01:03:25.700Z,1.77
2022-09-09T01:06:15.294Z,1.60
2022-09-09T01:09:07.527Z,1.35
2022-09-09T01:12:09.032Z,1.30
2022-09-09T01:14:35.988Z,1.45
2022-09-09T01:17:17.067Z,1.25
2022-09-09T01:19:44.012Z,1.30
2022-09-09T01:22:25.937Z,1.25
2022-09-09T01:24:55.690Z,1.77
2022-09-09T01:27:24.261Z,1.35
2022-09-09T01:29:51.267Z,1.63
2022-09-09T01:32:41.567Z,1.85
2022-09-09T01:35:19.433Z,1.67
2022-09-09T01:37:46.246Z,1.70
2022-09-09T01:40:13.395Z,1.63
2022-09-09T01:42:40.333Z,1.65
2022-09-09T01:45:08.151Z,1.80
2022-09-09T01:47:35.651Z,1.88
2022-09-09T01:50:04.382Z,1.33
2022-09-09T01:52:34.922Z,2.08
2022-09-09T01:55:01.966Z,1.77
2022-09-09T01:57:39.173Z,1.30
2022-09-09T02:00:12.729Z,1.98
2022-09-09T02:02:57.467Z,1.95
2022-09-09T02:05:36.508Z,1.50
2022-09-09T02:08:19.649Z,1.58
2022-09-09T02:10:56.248Z,1.40
2022-09-09T02:13:23.523Z,1.30
2022-09-09T02:16:09.459Z,1.63
2022-09-09T02:18:57.505Z,1.30
2022-09-09T02:21:25.935Z,1.33
2022-09-09T02:23:54.193Z,1.77
2022-09-09T02:26:24.596Z,1.65
2022-09-09T02:28:52.211Z,1.90
2022-09-09T02:31:21.207Z,1.95
2022-09-09T02:33:55.297Z,1.90
2022-09-09T02:36:26.540Z,1.92
2022-09-09T02:38:54.874Z,1.75
2022-09-09T02:41:27.480Z,1.80
2022-09-09T02:43:54.142Z,1.90
2022-09-09T02:46:30.297Z,1.77
2022-09-09T02:49:10.067Z,1.75
2022-09-09T02:51:49.790Z,1.50
2022-09-09T02:54:33.956Z,1.23
2022-09-09T02:57:20.781Z,1.50
2022-09-09T02:59:48.269Z,1.40
2022-09-09T03:02:15.568Z,1.50
2022-09-09T03:04:45.282Z,1.40
2022-09-09T03:07:13.468Z,1.55
2022-09-09T03:09:40.228Z,1.55
2022-09-09T03:12:08.386Z,1.77
2022-09-09T03:14:35.359Z,1.88
2022-09-09T03:17:03.687Z,1.83
2022-09-09T03:19:30.970Z,1.83
2022-09-09T03:21:58.593Z,1.40
2022-09-09T03:24:26.100Z,1.65
2022-09-09T03:26:53.388Z,1.50
2022-09-09T03:29:20.274Z,1.55
2022-09-09T03:31:47.601Z,1.50
2022-09-09T03:34:14.729Z,1.35
2022-09-09T03:36:42.525Z,1.33
2022-09-09T03:39:09.265Z,1.30
2022-09-09T03:41:36.234Z,1.60
2022-09-09T03:44:03.183Z,1.60
2022-09-09T03:46:30.961Z,1.85
2022-09-09T03:48:58.210Z,1.40
2022-09-09T03:51:25.765Z,1.48
2022-09-09T03:53:52.419Z,1.42
2022-09-09T03:56:19.391Z,1.35
2022-09-09T03:58:46.100Z,1.52
2022-09-09T04:01:14.870Z,1.25
2022-09-09T04:03:42.310Z,1.23
2022-09-09T04:06:11.809Z,1.30
2022-09-09T04:08:39.905Z,1.27
2022-09-09T04:11:07.386Z,1.70
2022-09-09T04:13:40.378Z,1.52
2022-09-09T04:16:07.708Z,1.70
2022-09-09T04:18:35.933Z,2.28
2022-09-09T04:21:03.661Z,1.80
2022-09-09T04:23:30.732Z,2.40
2022-09-09T04:25:59.612Z,3.28
2022-09-09T04:28:29.626Z,1.75
2022-09-09T04:30:57.832Z,1.77
2022-09-09T04:33:27.843Z,1.58
2022-09-09T04:35:54.705Z,1.80
2022-09-09T04:38:23.979Z,1.80
2022-09-09T04:40:52.840Z,1.40
2022-09-09T04:43:24.210Z,1.73
2022-09-09T04:45:54.877Z,1.63
2022-09-09T04:48:22.578Z,1.60
2022-09-09T04:51:16.098Z,1.80
2022-09-09T04:53:43.160Z,1.60
2022-09-09T04:56:16.095Z,1.83
2022-09-09T04:58:47.219Z,1.80
2022-09-09T05:01:18.387Z,3.03
2022-09-09T05:03:48.781Z,2.83
2022-09-09T05:06:17.785Z,2.30
2022-09-09T05:08:45.793Z,2.17
2022-09-09T05:11:21.126Z,2.05
2022-09-09T05:13:48.612Z,1.98
2022-09-09T05:16:15.592Z,2.03
2022-09-09T05:18:44.347Z,1.70
2022-09-09T05:21:12.697Z,1.90
2022-09-09T05:23:40.087Z,2.50
2022-09-09T05:26:08.631Z,2.17
2022-09-09T05:28:37.126Z,2.90
2022-09-09T05:31:08.941Z,1.98
2022-09-09T05:33:37.290Z,1.83
2022-09-09T05:36:09.481Z,1.60
2022-09-09T05:38:37.188Z,1.77
2022-09-09T05:41:04.498Z,2.00
2022-09-09T05:43:32.919Z,1.70
2022-09-09T05:46:08.566Z,1.60
2022-09-09T05:48:43.915Z,2.00
2022-09-09T05:51:20.531Z,1.90
2022-09-09T05:53:47.895Z,1.48
2022-09-09T05:56:29.380Z,1.90
2022-09-09T05:58:57.446Z,1.73
2022-09-09T06:01:33.055Z,1.75
2022-09-09T06:04:00.660Z,1.65
2022-09-09T06:06:31.461Z,1.60
2022-09-09T06:08:59.452Z,1.50
2022-09-09T06:11:32.279Z,1.55
2022-09-09T06:14:00.490Z,1.60
2022-09-09T06:16:28.809Z,1.40
2022-09-09T06:18:57.597Z,1.60
2022-09-09T06:21:31.087Z,1.50
2022-09-09T06:24:01.059Z,1.38
2022-09-09T06:26:33.731Z,1.58
2022-09-09T06:29:01.434Z,1.80
2022-09-09T06:31:31.881Z,1.90
2022-09-09T06:33:59.835Z,1.73
2022-09-09T06:36:28.819Z,1.73
2022-09-09T06:38:56.299Z,1.77
2022-09-09T06:41:26.173Z,2.20
2022-09-09T06:43:53.226Z,1.95
2022-09-09T06:46:22.907Z,2.08
2022-09-09T06:48:50.133Z,2.20
2022-09-09T06:51:24.372Z,1.70
2022-09-09T06:53:54.602Z,1.92
2022-09-09T06:56:33.344Z,1.65
2022-09-09T06:59:05.478Z,1.65
2022-09-09T07:01:35.188Z,2.00
2022-09-09T07:04:03.198Z,1.92
2022-09-09T07:06:32.276Z,1.70
2022-09-09T07:09:01.657Z,1.92
2022-09-09T07:11:31.038Z,2.30
2022-09-09T07:14:01.488Z,1.40
2022-09-09T07:16:30.596Z,1.88
2022-09-09T07:19:01.379Z,1.57
2022-09-09T07:21:29.929Z,1.55
2022-09-09T07:23:57.607Z,1.80
2022-09-09T07:26:27.010Z,1.67
2022-09-09T07:28:54.594Z,1.83
2022-09-09T07:31:29.161Z,1.75
2022-09-09T07:33:56.215Z,1.38
2022-09-09T07:36:27.151Z,1.90
2022-09-09T07:38:59.851Z,2.20
2022-09-09T07:41:33.044Z,1.85
2022-09-09T07:43:59.891Z,2.13
2022-09-09T07:46:27.683Z,1.83
2022-09-09T07:48:57.358Z,2.30
2022-09-09T07:51:27.355Z,1.90
2022-09-09T07:53:59.245Z,1.80
2022-09-09T07:56:28.364Z,1.60
2022-09-09T07:58:56.569Z,1.48
2022-09-09T08:01:32.909Z,1.58
2022-09-09T08:04:05.316Z,1.45
2022-09-09T08:06:38.419Z,1.33
2022-09-09T08:09:05.730Z,1.75
2022-09-09T08:11:38.808Z,1.65
2022-09-09T08:14:08.500Z,1.80
2022-09-09T08:16:41.638Z,1.47
2022-09-09T08:19:08.802Z,1.60
2022-09-09T08:21:37.692Z,1.33
2022-09-09T08:24:06.423Z,1.25
2022-09-09T08:26:44.550Z,0.80
2022-09-09T08:29:14.072Z,1.00
2022-09-09T08:31:41.883Z,1.60
2022-09-09T08:34:10.205Z,0.85
2022-09-09T08:36:45.032Z,0.70
2022-09-09T08:39:14.487Z,0.80
2022-09-09T08:42:01.752Z,0.63
2022-09-09T08:44:57.130Z,1.00
2022-09-09T08:47:37.225Z,0.50
2022-09-09T08:50:03.994Z,0.80
2022-09-09T08:52:32.469Z,0.80
2022-09-09T08:55:32.071Z,0.95
2022-09-09T08:58:04.238Z,0.80
2022-09-09T09:00:56.357Z,0.80
2022-09-09T09:03:57.600Z,0.75
2022-09-09T09:06:37.281Z,0.82
2022-09-09T09:09:10.082Z,0.65
2022-09-09T09:11:43.420Z,0.85
2022-09-09T09:14:24.752Z,0.70
2022-09-09T09:16:58.650Z,0.82
2022-09-09T09:19:27.552Z,1.05
2022-09-09T09:22:08.218Z,0.60
2022-09-09T09:24:34.960Z,0.63
2022-09-09T09:27:13.983Z,1.02
2022-09-09T09:30:10.513Z,0.67
2022-09-09T09:32:35.577Z,0.80
2022-09-09T09:35:09.309Z,0.70
2022-09-09T09:37:36.474Z,0.63
2022-09-09T09:40:18.055Z,0.45
2022-09-09T09:43:01.704Z,0.60
2022-09-09T09:45:46.791Z,0.60
2022-09-09T09:48:22.639Z,0.63
2022-09-09T09:50:56.562Z,0.90
2022-09-09T09:53:33.110Z,0.90
2022-09-09T09:56:08.132Z,0.68
2022-09-09T09:58:47.373Z,1.20
2022-09-09T10:01:40.494Z,0.77
2022-09-09T10:04:19.331Z,0.68
2022-09-09T10:06:46.026Z,0.57
2022-09-09T10:09:22.166Z,0.60
2022-09-09T10:12:07.844Z,0.70
2022-09-09T10:14:44.553Z,0.63
2022-09-09T10:17:28.114Z,0.80
2022-09-09T10:20:33.688Z,0.80
2022-09-09T10:23:26.305Z,0.68
2022-09-09T10:26:26.124Z,0.68
2022-09-09T10:29:09.513Z,0.60
2022-09-09T10:31:41.342Z,0.52
2022-09-09T10:34:32.676Z,0.90
2022-09-09T10:37:00.976Z,0.63
2022-09-09T10:39:42.998Z,0.77
2022-09-09T10:42:13.579Z,0.80
2022-09-09T10:44:48.747Z,0.80
2022-09-09T10:47:34.416Z,0.70
2022-09-09T10:53:57.015Z,0.65
2022-09-09T10:56:24.962Z,0.90
2022-09-09T10:59:00.312Z,1.05
2022-09-09T11:01:38.366Z,0.93
2022-09-09T11:04:13.613Z,0.68
2022-09-09T11:06:45.397Z,0.95
2022-09-09T11:09:19.184Z,0.60
2022-09-09T11:11:56.553Z,2.15
2022-09-09T11:14:57.682Z,1.42
2022-09-09T11:17:40.873Z,0.63
2022-09-09T11:20:13.188Z,0.70
2022-09-09T11:22:44.262Z,0.70
2022-09-09T11:25:27.788Z,0.70
2022-09-09T11:28:01.638Z,0.70
2022-09-09T11:30:56.903Z,0.90
2022-09-09T11:33:54.709Z,0.73
2022-09-09T11:36:43.330Z,0.90
2022-09-09T11:39:58.425Z,0.65
2022-09-09T11:42:26.055Z,0.68
2022-09-09T11:44:55.031Z,0.85
2022-09-09T11:47:32.293Z,0.52
2022-09-09T11:50:27.873Z,0.73
2022-09-09T11:53:14.915Z,0.50
2022-09-09T11:55:41.934Z,0.60
2022-09-09T11:58:11.980Z,0.75
2022-09-09T12:00:41.508Z,0.50
2022-09-09T12:03:45.946Z,0.73
2022-09-09T12:06:29.792Z,0.50
2022-09-09T12:09:05.930Z,0.82
2022-09-09T12:11:33.057Z,0.75
2022-09-09T12:14:04.652Z,0.68
2022-09-09T12:16:38.696Z,0.43
2022-09-09T12:19:24.831Z,0.60
2022-09-09T12:22:11.363Z,0.60
2022-09-09T12:24:50.800Z,0.68
2022-09-09T12:27:18.405Z,0.60
2022-09-09T12:29:58.696Z,0.70
2022-09-09T12:32:27.247Z,0.40
2022-09-09T12:34:59.239Z,0.40
2022-09-09T12:37:42.978Z,0.70
2022-09-09T12:40:42.567Z,0.68
2022-09-09T12:45:46.299Z,0.75
2022-09-09T12:48:16.836Z,0.90
2022-09-09T12:50:52.703Z,0.65
2022-09-09T12:53:36.692Z,0.70
2022-09-09T12:56:08.430Z,1.10
2022-09-09T12:58:37.803Z,0.75
2022-09-09T13:01:06.446Z,0.57
2022-09-09T13:03:43.712Z,1.00
2022-09-09T13:06:19.128Z,0.80
2022-09-09T13:08:46.120Z,0.77
2022-09-09T13:11:18.294Z,0.85
2022-09-09T13:13:52.737Z,0.88
2022-09-09T13:16:27.369Z,0.93
2022-09-09T13:18:54.769Z,0.85
2022-09-09T13:21:32.849Z,0.85
2022-09-09T13:24:04.484Z,0.70
2022-09-09T13:26:31.322Z,0.68
2022-09-09T13:29:19.062Z,0.80
2022-09-09T13:31:47.003Z,1.00
2022-09-09T13:34:44.473Z,0.90
2022-09-09T13:37:32.675Z,1.00
2022-09-09T13:40:00.354Z,1.10
2022-09-09T13:42:30.533Z,1.40
2022-09-09T13:47:34.079Z,0.70
2022-09-09T13:50:20.557Z,0.90
2022-09-09T13:52:48.336Z,0.70
2022-09-09T13:55:15.464Z,0.80
2022-09-09T13:57:52.477Z,1.00
2022-09-09T14:00:20.451Z,1.10
2022-09-09T14:02:47.962Z,0.88
2022-09-09T14:05:16.307Z,1.50
2022-09-09T14:07:44.363Z,0.80
2022-09-09T14:10:13.111Z,0.88
2022-09-09T14:12:39.757Z,1.00
2022-09-09T14:15:09.048Z,0.65
2022-09-09T14:17:37.104Z,0.60
2022-09-09T14:20:13.093Z,0.70
2022-09-09T14:22:42.721Z,0.85
2022-09-09T14:25:09.883Z,0.85
2022-09-09T14:27:36.536Z,0.73
2022-09-09T14:30:03.964Z,0.70
2022-09-09T14:32:30.627Z,1.05
2022-09-09T14:34:57.299Z,0.60
2022-09-09T14:37:24.969Z,0.80
2022-09-09T14:39:51.977Z,0.50
2022-09-09T14:42:20.042Z,0.68
2022-09-09T14:44:46.702Z,0.47
2022-09-09T14:47:13.698Z,0.70
2022-09-09T14:49:42.589Z,0.70
2022-09-09T14:52:12.565Z,0.77
2022-09-09T14:54:39.255Z,0.70
2022-09-09T14:57:06.262Z,0.60
2022-09-09T14:59:32.930Z,0.82
2022-09-09T15:02:02.093Z,0.60
2022-09-09T15:04:28.794Z,0.60
2022-09-09T15:06:55.809Z,0.60
2022-09-09T15:09:22.513Z,0.63
2022-09-09T15:11:49.547Z,0.82
2022-09-09T15:14:16.472Z,0.73
2022-09-09T15:16:43.438Z,0.63
2022-09-09T15:19:10.237Z,0.60
2022-09-09T15:21:39.235Z,0.50
2022-09-09T15:24:08.379Z,0.80
2022-09-09T15:26:36.422Z,1.15
2022-09-09T15:29:03.475Z,0.60
2022-09-09T15:31:32.922Z,0.93
2022-09-09T15:34:02.380Z,0.93
2022-09-09T15:36:40.819Z,0.93
2022-09-09T15:39:13.669Z,0.50
2022-09-09T15:41:41.467Z,0.77
2022-09-09T15:44:08.279Z,0.70
2022-09-09T15:46:44.952Z,0.93
2022-09-09T15:49:31.860Z,0.85
2022-09-09T15:52:03.682Z,0.75
2022-09-09T15:54:33.927Z,0.80
2022-09-09T15:57:03.688Z,0.70
2022-09-09T15:59:32.277Z,0.60
2022-09-09T16:02:01.340Z,0.80
2022-09-09T16:04:31.795Z,0.70
2022-09-09T16:07:01.550Z,0.70
2022-09-09T16:09:29.124Z,0.70
2022-09-09T16:12:02.161Z,0.95
2022-09-09T16:14:29.464Z,0.93
2022-09-09T16:16:56.641Z,0.63
2022-09-09T16:19:24.741Z,0.70
2022-09-09T16:21:52.195Z,0.85
2022-09-09T16:24:21.348Z,0.70
2022-09-09T16:26:50.953Z,0.80
2022-09-09T16:29:19.375Z,0.95
2022-09-09T16:31:47.791Z,0.60
2022-09-09T16:34:18.810Z,0.70
2022-09-09T16:36:46.655Z,0.50
2022-09-09T16:39:17.500Z,0.60
2022-09-09T16:41:46.287Z,0.82
2022-09-09T16:44:15.080Z,0.77
2022-09-09T16:46:43.886Z,0.95
2022-09-09T16:49:12.901Z,0.52
2022-09-09T16:51:50.804Z,0.50
2022-09-09T16:54:19.502Z,0.75
2022-09-09T16:56:47.995Z,0.95
2022-09-09T16:59:20.100Z,0.65
2022-09-09T17:01:50.053Z,1.10
2022-09-09T17:06:53.885Z,0.77
2022-09-09T17:09:22.395Z,0.80
2022-09-09T17:11:52.117Z,1.02
2022-09-09T17:14:21.355Z,0.95
2022-09-09T17:16:48.103Z,0.90
2022-09-09T17:19:15.308Z,0.98
2022-09-09T17:22:05.754Z,0.88
2022-09-09T17:24:30.460Z,1.10
2022-09-09T17:26:58.342Z,1.02
2022-09-09T17:29:26.231Z,3.70
2022-09-09T17:31:53.452Z,2.47
2022-09-09T17:34:20.823Z,3.05
2022-09-09T17:36:48.339Z,2.17
2022-09-09T17:39:15.155Z,1.50
2022-09-09T17:41:42.206Z,1.52
2022-09-09T17:44:10.549Z,1.88
2022-09-09T17:46:41.720Z,0.90
2022-09-09T17:49:10.887Z,0.75
2022-09-09T17:51:38.174Z,0.70
2022-09-09T17:54:17.402Z,0.80
2022-09-09T17:56:45.437Z,0.90
2022-09-09T17:59:13.644Z,0.35
2022-09-09T18:01:45.187Z,0.50
2022-09-09T18:04:14.202Z,0.60
2022-09-09T18:06:46.508Z,0.60
2022-09-09T18:09:19.966Z,0.57
2022-09-09T18:11:49.265Z,0.50
2022-09-09T18:14:20.413Z,0.70
2022-09-09T18:16:50.732Z,1.08
2022-09-09T18:19:23.752Z,0.93
2022-09-09T18:21:50.864Z,0.88
2022-09-09T18:24:20.217Z,0.73
2022-09-09T18:26:48.262Z,0.80
2022-09-09T18:29:21.333Z,0.77
2022-09-09T18:31:48.477Z,0.70
2022-09-09T18:34:17.823Z,0.63
2022-09-09T18:36:47.401Z,0.90
2022-09-09T18:39:16.425Z,0.70
2022-09-09T18:41:49.709Z,0.60
2022-09-09T18:44:19.675Z,0.80
2022-09-09T18:46:47.995Z,0.80
2022-09-09T18:49:15.571Z,0.77
2022-09-09T18:51:44.611Z,0.45
2022-09-09T18:54:20.255Z,0.73
2022-09-09T18:56:47.952Z,0.70
2022-09-09T18:59:19.661Z,0.52
2022-09-09T19:01:51.003Z,0.60
2022-09-09T19:04:19.176Z,0.93
2022-09-09T19:06:47.707Z,0.65
2022-09-09T19:09:18.416Z,0.88
2022-09-09T19:11:46.463Z,0.70
2022-09-09T19:14:16.576Z,0.80
2022-09-09T19:16:45.276Z,0.80
2022-09-09T19:19:15.808Z,0.82
2022-09-09T19:21:43.975Z,1.00
2022-09-09T19:24:17.987Z,1.13
2022-09-09T19:26:48.522Z,1.10
2022-09-09T19:29:19.510Z,1.20
2022-09-09T19:32:09.507Z,1.65
2022-09-09T19:34:34.221Z,1.25
2022-09-09T19:37:01.561Z,1.25
2022-09-09T19:39:28.731Z,1.15
2022-09-09T19:41:55.927Z,1.23
2022-09-09T19:44:22.587Z,1.30
2022-09-09T19:46:50.128Z,1.48
2022-09-09T19:49:17.578Z,1.23
2022-09-09T19:51:44.697Z,0.85
2022-09-09T19:54:16.730Z,0.73
2022-09-09T19:56:44.297Z,1.48
2022-09-09T19:59:12.857Z,1.02
2022-09-09T20:01:41.963Z,1.10
2022-09-09T20:04:09.405Z,0.90
2022-09-09T20:06:41.860Z,1.25
2022-09-09T20:09:14.839Z,0.93
2022-09-09T20:11:43.123Z,1.10
2022-09-09T20:14:11.920Z,0.88
2022-09-09T20:16:39.192Z,1.08
2022-09-09T20:19:08.103Z,0.95
2022-09-09T20:21:45.265Z,1.20
2022-09-09T20:24:15.411Z,0.95
2022-09-09T20:26:42.259Z,1.00
2022-09-09T20:29:16.258Z,1.13
2022-09-09T20:31:44.261Z,0.88
2022-09-09T20:34:19.026Z,0.90
2022-09-09T20:36:46.831Z,0.70
2022-09-09T20:39:16.056Z,0.75
2022-09-09T20:41:46.569Z,0.80
2022-09-09T20:44:16.674Z,0.63
2022-09-09T20:49:16.820Z,0.80
2022-09-09T20:51:44.653Z,0.73
2022-09-09T20:54:21.019Z,1.02
2022-09-09T20:56:48.310Z,0.98
2022-09-09T20:59:21.206Z,1.00
2022-09-09T21:01:48.722Z,0.88
2022-09-09T21:04:18.130Z,1.00
2022-09-09T21:06:45.407Z,0.77
2022-09-09T21:09:12.873Z,1.00
2022-09-09T21:11:39.880Z,0.73
2022-09-09T21:14:07.326Z,0.90
2022-09-09T21:16:34.077Z,0.80
2022-09-09T21:19:01.231Z,0.77
2022-09-09T21:21:28.339Z,1.00
2022-09-09T21:23:58.235Z,0.60
2022-09-09T21:26:25.822Z,0.80
2022-09-09T21:28:53.490Z,0.65
2022-09-09T21:31:27.020Z,0.65
2022-09-09T21:33:54.998Z,0.68
2022-09-09T21:36:22.051Z,0.75
2022-09-09T21:38:49.269Z,0.80
2022-09-09T21:41:16.886Z,1.00
2022-09-09T21:43:44.784Z,0.90
2022-09-09T21:46:18.397Z,0.90
2022-09-09T21:48:45.294Z,0.82
2022-09-09T21:51:15.466Z,0.80
2022-09-09T21:56:18.418Z,1.02
2022-09-09T21:58:46.000Z,1.00
2022-09-09T22:01:18.062Z,1.10
2022-09-09T22:03:45.583Z,0.90
2022-09-09T22:06:14.845Z,0.65
2022-09-09T22:08:42.712Z,0.77
2022-09-09T22:11:16.033Z,1.10
2022-09-09T22:13:46.268Z,1.00
2022-09-09T22:16:15.290Z,1.10
2022-09-09T22:18:42.084Z,1.30
2022-09-09T22:21:11.366Z,0.95
2022-09-09T22:23:38.190Z,0.93
2022-09-09T22:26:06.121Z,0.90
2022-09-09T22:28:34.307Z,0.90
2022-09-09T22:31:01.693Z,1.00
2022-09-09T22:33:29.120Z,1.30
2022-09-09T22:35:56.629Z,1.05
2022-09-09T22:38:23.451Z,1.10
2022-09-09T22:40:50.740Z,1.27
2022-09-09T22:43:20.406Z,1.10
2022-09-09T22:45:48.487Z,1.05
2022-09-09T22:48:16.094Z,0.77
2022-09-09T22:50:43.455Z,1.27
2022-09-09T22:53:13.459Z,1.45
2022-09-09T22:58:07.367Z,1.20
2022-09-09T23:00:34.744Z,1.20
2022-09-09T23:03:03.264Z,1.00
2022-09-09T23:05:30.903Z,1.95
2022-09-09T23:08:00.548Z,1.20
2022-09-09T23:10:27.828Z,1.00
2022-09-09T23:12:57.148Z,1.60
2022-09-09T23:15:24.012Z,1.20
2022-09-09T23:17:52.557Z,1.15
2022-09-09T23:20:19.865Z,1.05
2022-09-09T23:22:46.811Z,1.10
2022-09-09T23:25:13.754Z,1.15
2022-09-09T23:27:40.401Z,1.05
2022-09-09T23:30:08.207Z,1.05
2022-09-09T23:32:35.166Z,1.27
2022-09-09T23:35:01.915Z,1.02
2022-09-09T23:37:32.177Z,1.08
2022-09-09T23:40:00.025Z,1.08
2022-09-09T23:42:27.375Z,1.10
2022-09-09T23:44:54.033Z,0.70
2022-09-09T23:47:21.004Z,0.82
2022-09-09T23:49:48.927Z,0.68
2022-09-09T23:52:16.070Z,0.80
2022-09-09T23:54:43.638Z,0.80
2022-09-09T23:57:12.144Z,0.77
2022-09-09T23:59:38.995Z,0.52
